Terminal Aerodrome Forecast
Issued by NWS

Home | Current Version | Previous Version | Text Only | Print | Product List | Glossary On
Versions: 1 2 3 4 5 6 7 8 9 10 11 12 13 14 15 16
000
FTUS43 KDMX 251521 AAC
TAFFOD
TAF AMD
KFOD 251521Z 2515/2612 19010KT P6SM VCSH SCT008 BKN060
     FM260200 20004KT P6SM VCTS BKN035CB OVC120
      TEMPO 2602/2604 2SM -TSRA OVC025CB
     FM260500 18004KT P6SM SCT025 BKN080=

USA.gov is the U.S. government's official web portal to all federal, state and local government web resources and services.